Time;durP1;ratioP1;P1;durP2;ratioP2;P2;SDS_P1;SDS_P2;PMS_P1;PMS_P2;Temp;Humidity;BMP_temperature;BMP_pressure;BME280_temperature;BME280_humidity;BME280_pressure;Samples;Min_cycle;Max_cycle;Signal;HPM_P1;HPM_P2
2023/06/30 00:01:28;;;;;;;4.70;3.10;;;21.60;91.30;;;;;;4933097;29;20027;-68
2023/06/30 00:03:54;;;;;;;7.13;3.42;;;21.60;91.40;;;;;;4934312;29;20485;-68
2023/06/30 00:06:20;;;;;;;2.92;2.72;;;21.60;91.50;;;;;;4932854;29;20027;-68
2023/06/30 00:08:45;;;;;;;4.55;3.50;;;21.50;91.60;;;;;;4933780;29;20031;-68
2023/06/30 00:11:11;;;;;;;6.07;4.20;;;21.50;91.70;;;;;;4933319;29;20034;-67
2023/06/30 00:13:36;;;;;;;4.45;3.65;;;21.50;91.70;;;;;;4933058;29;20212;-68
2023/06/30 00:16:02;;;;;;;5.32;3.42;;;21.50;91.70;;;;;;4933677;29;20038;-68
2023/06/30 00:18:29;;;;;;;3.63;2.88;;;21.60;91.80;;;;;;4933039;29;20130;-68
2023/06/30 00:20:54;;;;;;;6.22;3.40;;;21.50;91.80;;;;;;4933548;29;20038;-68
2023/06/30 00:23:21;;;;;;;6.40;3.40;;;21.50;91.90;;;;;;4926765;29;20023;-68
2023/06/30 00:25:46;;;;;;;3.90;2.80;;;21.50;91.90;;;;;;4933345;29;20036;-68
2023/06/30 00:28:12;;;;;;;4.57;3.72;;;21.50;92.00;;;;;;4933891;29;20115;-68
2023/06/30 00:30:38;;;;;;;3.95;2.92;;;21.50;92.00;;;;;;4932580;29;20572;-68
2023/06/30 00:33:04;;;;;;;7.70;3.13;;;21.50;92.10;;;;;;4933757;29;20030;-68
2023/06/30 00:35:30;;;;;;;3.88;3.00;;;21.40;92.10;;;;;;4932562;29;20035;-68
2023/06/30 00:37:55;;;;;;;8.05;3.25;;;21.40;92.20;;;;;;4933490;29;20167;-68
2023/06/30 00:40:21;;;;;;;3.78;2.80;;;21.30;92.40;;;;;;4932260;29;20042;-68
2023/06/30 00:42:47;;;;;;;4.97;3.92;;;21.20;92.60;;;;;;4933517;29;20062;-68
2023/06/30 00:45:13;;;;;;;3.80;2.72;;;21.20;92.60;;;;;;4928737;29;20439;-68
2023/06/30 00:47:39;;;;;;;5.25;3.13;;;21.10;92.60;;;;;;4932907;29;20054;-68
2023/06/30 00:50:05;;;;;;;9.10;3.17;;;21.10;92.80;;;;;;4923532;29;20055;-68
2023/06/30 00:52:32;;;;;;;6.88;3.38;;;21.10;92.90;;;;;;4932690;29;20484;-67
2023/06/30 00:54:57;;;;;;;3.17;2.65;;;21.00;92.90;;;;;;4933653;29;20114;-68
2023/06/30 00:57:23;;;;;;;6.05;2.97;;;;;;;;;;4936171;29;20111;-68
2023/06/30 00:59:49;;;;;;;6.68;3.35;;;20.90;92.90;;;;;;4936428;29;20027;-68
2023/06/30 01:02:14;;;;;;;5.15;3.17;;;20.80;93.10;;;;;;4936972;29;20032;-68
2023/06/30 01:05:06;;;;;;;3.47;2.90;;;20.80;93.20;;;;;;4935865;29;20032;-67
2023/06/30 01:07:39;;;;;;;4.25;3.17;;;20.70;93.20;;;;;;4932968;29;20043;-67
2023/06/30 01:10:25;;;;;;;5.13;2.85;;;20.70;93.20;;;;;;4936610;29;20027;-67
2023/06/30 01:12:52;;;;;;;6.15;3.20;;;20.70;93.30;;;;;;4936670;29;20032;-68
2023/06/30 01:15:19;;;;;;;4.53;3.03;;;;;;;;;;4904050;29;20038;-69
2023/06/30 01:17:48;;;;;;;5.57;2.92;;;20.60;93.30;;;;;;4936729;29;20036;-68
2023/06/30 01:20:17;;;;;;;4.72;3.03;;;20.60;93.70;;;;;;4936019;29;20366;-68
2023/06/30 01:22:58;;;;;;;6.15;3.30;;;20.50;93.80;;;;;;4936461;29;20094;-67
2023/06/30 01:25:29;;;;;;;5.68;2.90;;;20.50;94.00;;;;;;4932174;29;20020;-68
2023/06/30 01:27:56;;;;;;;7.43;3.30;;;20.40;94.10;;;;;;4936521;29;20385;-68
2023/06/30 01:30:23;;;;;;;4.28;3.13;;;20.40;94.10;;;;;;4935207;29;20083;-68
2023/06/30 01:32:54;;;;;;;4.43;2.88;;;20.30;94.20;;;;;;4936551;29;20028;-68
2023/06/30 01:35:20;;;;;;;5.68;3.72;;;20.30;94.40;;;;;;4934766;29;20055;-68
2023/06/30 01:37:46;;;;;;;8.10;3.00;;;20.20;94.50;;;;;;4936642;29;20063;-68
2023/06/30 01:40:12;;;;;;;4.38;2.85;;;20.20;94.70;;;;;;4935998;29;20409;-68
2023/06/30 01:42:39;;;;;;;5.65;2.97;;;20.20;94.80;;;;;;4935342;29;20047;-68
2023/06/30 01:45:06;;;;;;;3.92;2.95;;;20.20;95.00;;;;;;4935867;29;20055;-68
2023/06/30 01:47:33;;;;;;;5.00;2.75;;;20.10;95.20;;;;;;4934676;29;20047;-68
2023/06/30 01:49:59;;;;;;;4.28;3.15;;;20.10;95.30;;;;;;4935371;29;20038;-68
2023/06/30 01:52:24;;;;;;;8.23;2.90;;;20.10;95.50;;;;;;4935409;29;20024;-68
2023/06/30 01:54:50;;;;;;;5.03;3.10;;;20.10;95.60;;;;;;4935652;29;20536;-68
2023/06/30 01:57:16;;;;;;;5.28;3.05;;;20.00;95.80;;;;;;4935325;29;20055;-68
2023/06/30 01:59:42;;;;;;;4.78;3.35;;;;;;;;;;4935421;29;20109;-68
2023/06/30 02:02:08;;;;;;;4.05;3.30;;;20.00;95.90;;;;;;4935933;29;20038;-68
2023/06/30 02:04:33;;;;;;;5.07;3.22;;;20.00;96.30;;;;;;4936397;29;20118;-68
2023/06/30 02:06:59;;;;;;;5.43;3.20;;;20.00;96.50;;;;;;4936467;29;20461;-67
2023/06/30 02:09:24;;;;;;;3.75;3.00;;;20.00;96.60;;;;;;4936209;29;20057;-68
2023/06/30 02:11:50;;;;;;;4.28;3.08;;;19.90;96.80;;;;;;4936539;29;20119;-68
2023/06/30 02:14:16;;;;;;;3.47;2.83;;;19.90;97.00;;;;;;4935152;29;20062;-69
2023/06/30 02:16:41;;;;;;;4.90;3.38;;;19.90;97.20;;;;;;4934978;29;20035;-68
2023/06/30 02:19:07;;;;;;;5.53;3.65;;;19.80;97.40;;;;;;4935639;29;20082;-68
2023/06/30 02:21:32;;;;;;;6.22;4.07;;;19.80;97.70;;;;;;4933895;29;20496;-68
2023/06/30 02:23:58;;;;;;;4.93;3.47;;;19.80;98.00;;;;;;4935614;29;20063;-68
2023/06/30 02:26:23;;;;;;;4.82;3.13;;;19.70;98.30;;;;;;4927142;29;20024;-68
2023/06/30 02:28:49;;;;;;;4.95;3.58;;;19.70;98.50;;;;;;4908406;29;20024;-68
2023/06/30 02:31:15;;;;;;;5.15;3.60;;;19.70;99.00;;;;;;4934291;29;20057;-68
2023/06/30 02:33:41;;;;;;;4.82;3.30;;;19.70;99.00;;;;;;4934796;29;20023;-67
2023/06/30 02:36:06;;;;;;;6.55;3.80;;;19.70;99.30;;;;;;4934991;29;20147;-68
2023/06/30 02:38:32;;;;;;;6.28;3.97;;;19.60;99.60;;;;;;4934703;29;20106;-68
2023/06/30 02:40:57;;;;;;;6.45;3.58;;;19.60;99.90;;;;;;4934410;29;20082;-68
2023/06/30 02:43:23;;;;;;;6.47;3.97;;;19.60;99.90;;;;;;4934072;29;20047;-68
2023/06/30 02:45:49;;;;;;;9.60;4.28;;;19.50;99.90;;;;;;4929033;29;20378;-68
2023/06/30 02:48:14;;;;;;;7.75;4.30;;;19.50;99.90;;;;;;4930099;29;20032;-68
2023/06/30 02:50:40;;;;;;;5.60;3.88;;;19.50;99.90;;;;;;4928791;29;20359;-68
2023/06/30 02:53:06;;;;;;;6.65;3.90;;;19.60;99.90;;;;;;4934742;29;20087;-68
2023/06/30 02:55:33;;;;;;;6.75;4.00;;;19.60;99.90;;;;;;4933809;29;20034;-68
2023/06/30 02:57:58;;;;;;;9.60;3.88;;;19.60;99.90;;;;;;4934658;29;20114;-67
2023/06/30 03:00:24;;;;;;;6.32;3.72;;;19.50;99.90;;;;;;4934124;29;20115;-68
2023/06/30 03:02:50;;;;;;;7.82;3.85;;;19.50;99.90;;;;;;4934740;29;20027;-69
2023/06/30 03:05:16;;;;;;;8.88;4.60;;;19.50;99.90;;;;;;4933936;29;20039;-68
2023/06/30 03:07:41;;;;;;;7.45;3.97;;;19.50;99.90;;;;;;4934321;29;20028;-67
2023/06/30 03:10:07;;;;;;;3.92;3.45;;;19.50;99.90;;;;;;4934735;29;20112;-67
2023/06/30 03:12:33;;;;;;;8.18;4.13;;;19.50;99.90;;;;;;4934175;29;20028;-67
2023/06/30 03:14:58;;;;;;;5.97;4.03;;;19.50;99.90;;;;;;4933679;29;20036;-67
2023/06/30 03:17:24;;;;;;;5.90;3.63;;;19.50;99.90;;;;;;4933251;29;20038;-68
2023/06/30 03:19:49;;;;;;;5.50;4.05;;;19.40;99.90;;;;;;4933954;29;20024;-67
2023/06/30 03:22:15;;;;;;;4.95;3.63;;;19.40;99.90;;;;;;4934432;29;20023;-67
2023/06/30 03:24:41;;;;;;;5.70;3.50;;;19.40;99.90;;;;;;4933753;29;20039;-68
2023/06/30 03:27:06;;;;;;;4.90;3.90;;;19.30;99.90;;;;;;4934346;29;20028;-67
2023/06/30 03:29:32;;;;;;;4.70;3.35;;;19.30;99.90;;;;;;4933423;29;20051;-68
2023/06/30 03:31:57;;;;;;;3.97;3.28;;;19.20;99.90;;;;;;4934571;29;20035;-67
2023/06/30 03:34:23;;;;;;;6.25;4.32;;;19.20;99.90;;;;;;4932857;29;20489;-68
2023/06/30 03:36:49;;;;;;;6.57;4.00;;;19.20;99.90;;;;;;4934452;29;20163;-67
2023/06/30 03:39:15;;;;;;;8.07;3.97;;;19.20;99.90;;;;;;4933858;29;20087;-67
2023/06/30 03:41:40;;;;;;;8.32;4.15;;;19.20;99.90;;;;;;4933233;29;20115;-67
2023/06/30 03:44:06;;;;;;;5.80;4.10;;;19.20;99.90;;;;;;4933473;29;20521;-67
2023/06/30 03:46:32;;;;;;;6.30;4.50;;;19.20;99.90;;;;;;4932892;29;20051;-68
2023/06/30 03:48:57;;;;;;;6.63;4.30;;;19.20;99.90;;;;;;4933578;29;20107;-68
2023/06/30 03:51:23;;;;;;;7.63;4.38;;;19.20;99.90;;;;;;4924796;29;20032;-68
2023/06/30 03:53:48;;;;;;;6.57;3.90;;;19.20;99.90;;;;;;4934120;29;20024;-67
2023/06/30 03:56:14;;;;;;;4.68;3.90;;;19.20;99.90;;;;;;4933434;29;20027;-67
2023/06/30 03:58:40;;;;;;;7.30;4.18;;;19.30;99.90;;;;;;4933672;29;20024;-69
2023/06/30 04:01:06;;;;;;;6.63;4.47;;;19.30;99.90;;;;;;4933496;29;20031;-67
2023/06/30 04:03:33;;;;;;;9.27;4.50;;;19.30;99.90;;;;;;4933190;29;20030;-68
2023/06/30 04:05:59;;;;;;;7.32;4.60;;;19.40;99.90;;;;;;4933460;29;20032;-68
2023/06/30 04:08:24;;;;;;;4.90;3.63;;;19.40;99.90;;;;;;4933442;29;20038;-68
2023/06/30 04:10:50;;;;;;;4.95;3.72;;;19.40;99.90;;;;;;4933658;29;20421;-68
2023/06/30 04:13:15;;;;;;;5.28;3.92;;;19.40;99.90;;;;;;4933480;29;20034;-68
2023/06/30 04:15:41;;;;;;;6.18;4.25;;;19.50;99.90;;;;;;4932822;29;20469;-68
2023/06/30 04:18:06;;;;;;;6.85;4.28;;;19.50;99.90;;;;;;4933998;29;20075;-67
2023/06/30 04:20:32;;;;;;;6.88;4.35;;;19.60;99.90;;;;;;4909899;29;20032;-68
2023/06/30 04:22:58;;;;;;;7.65;3.95;;;19.60;99.90;;;;;;4933669;29;20083;-68
2023/06/30 04:25:23;;;;;;;7.75;4.25;;;19.70;99.90;;;;;;4932706;29;20024;-68
2023/06/30 04:27:49;;;;;;;8.60;4.13;;;19.80;99.90;;;;;;4933790;29;20389;-68
2023/06/30 04:30:14;;;;;;;7.80;4.38;;;19.90;99.90;;;;;;4935929;29;20031;-68
2023/06/30 04:32:40;;;;;;;6.68;4.38;;;19.90;99.90;;;;;;4937543;29;20051;-67
2023/06/30 04:35:07;;;;;;;7.85;4.40;;;20.00;99.90;;;;;;4936354;29;20059;-68
2023/06/30 04:37:40;;;;;;;7.93;4.43;;;20.10;99.90;;;;;;4936835;29;20031;-67
2023/06/30 04:40:10;;;;;;;5.15;3.67;;;20.20;99.90;;;;;;4936793;29;20027;-67
2023/06/30 04:42:36;;;;;;;6.63;4.20;;;20.20;99.90;;;;;;4936285;29;20051;-68
2023/06/30 04:45:02;;;;;;;5.70;3.92;;;20.20;99.90;;;;;;4936312;29;20086;-68
2023/06/30 04:47:28;;;;;;;8.10;4.78;;;20.20;99.90;;;;;;4936299;29;20032;-68
2023/06/30 04:49:55;;;;;;;7.18;4.55;;;20.30;99.90;;;;;;4933777;29;20370;-68
2023/06/30 04:52:20;;;;;;;7.35;4.10;;;20.30;99.90;;;;;;4936338;29;20032;-68
2023/06/30 04:54:46;;;;;;;7.03;4.93;;;20.40;99.90;;;;;;4936492;29;20035;-68
2023/06/30 04:57:11;;;;;;;7.88;5.10;;;20.40;99.90;;;;;;4936460;29;20107;-68
2023/06/30 04:59:37;;;;;;;7.80;4.90;;;20.40;99.90;;;;;;4929205;29;20058;-68
2023/06/30 05:02:03;;;;;;;9.07;5.00;;;20.40;99.90;;;;;;4932335;29;20411;-68
2023/06/30 05:04:29;;;;;;;7.30;4.70;;;20.40;99.90;;;;;;4935632;29;20047;-68
2023/06/30 05:06:55;;;;;;;9.45;4.90;;;20.40;99.90;;;;;;4936841;29;20038;-70
2023/06/30 05:09:22;;;;;;;7.55;5.10;;;20.30;99.90;;;;;;4933588;29;20019;-71
2023/06/30 05:11:48;;;;;;;10.07;5.15;;;20.20;99.90;;;;;;4936781;29;20023;-68
2023/06/30 05:14:13;;;;;;;9.65;5.88;;;20.20;99.90;;;;;;4936656;29;20023;-71
2023/06/30 05:16:39;;;;;;;9.05;5.47;;;20.20;99.90;;;;;;4935839;29;20032;-69
2023/06/30 05:19:04;;;;;;;10.65;6.15;;;20.20;99.90;;;;;;4936516;29;20039;-70
2023/06/30 05:21:30;;;;;;;10.30;6.00;;;20.30;99.90;;;;;;4934960;29;20094;-69
2023/06/30 05:23:56;;;;;;;9.55;6.47;;;20.40;99.90;;;;;;4936191;29;20058;-70
2023/06/30 05:26:21;;;;;;;14.95;6.10;;;20.40;99.90;;;;;;4935272;29;20031;-69
2023/06/30 05:28:47;;;;;;;10.20;6.45;;;20.40;99.90;;;;;;4936458;29;20027;-70
2023/06/30 05:31:12;;;;;;;11.43;6.55;;;20.40;99.90;;;;;;4918868;29;20393;-69
2023/06/30 05:33:38;;;;;;;9.73;6.55;;;20.40;99.90;;;;;;4934368;29;20134;-69
2023/06/30 05:36:04;;;;;;;11.27;7.50;;;20.30;99.90;;;;;;4935900;29;20032;-69
2023/06/30 05:38:30;;;;;;;12.60;7.28;;;20.10;99.90;;;;;;4935692;29;20115;-63
2023/06/30 05:40:56;;;;;;;13.57;7.22;;;19.60;99.90;;;;;;4934924;29;20035;-66
2023/06/30 05:43:22;;;;;;;11.63;8.52;;;19.40;99.90;;;;;;4934957;29;20048;-67
2023/06/30 05:45:49;;;;;;;12.63;8.10;;;19.00;99.90;;;;;;4935715;29;20477;-68
2023/06/30 05:48:15;;;;;;;11.43;8.13;;;18.70;99.90;;;;;;4935936;29;20031;-67
2023/06/30 05:50:40;;;;;;;12.52;8.85;;;18.40;99.90;;;;;;4932069;29;20091;-65
2023/06/30 05:53:06;;;;;;;13.38;9.43;;;18.20;99.90;;;;;;4934093;29;20031;-65
2023/06/30 05:55:32;;;;;;;13.65;9.45;;;18.10;99.90;;;;;;4934878;29;20027;-62
2023/06/30 05:57:57;;;;;;;16.15;9.48;;;18.00;99.90;;;;;;4936089;29;20035;-63
2023/06/30 06:00:24;;;;;;;13.15;9.38;;;17.80;99.90;;;;;;4934747;29;20039;-63
2023/06/30 06:02:50;;;;;;;13.70;10.30;;;17.70;99.90;;;;;;4936055;29;20035;-63
2023/06/30 06:05:16;;;;;;;11.82;10.40;;;17.70;99.90;;;;;;4934636;29;20384;-63
2023/06/30 06:07:42;;;;;;;15.30;10.65;;;17.60;99.90;;;;;;4935448;29;20122;-62
2023/06/30 06:10:08;;;;;;;18.00;11.02;;;17.50;99.90;;;;;;4935191;29;20028;-62
2023/06/30 06:12:33;;;;;;;15.77;10.77;;;17.50;99.90;;;;;;4935135;29;20035;-65
2023/06/30 06:14:59;;;;;;;13.20;11.25;;;17.50;99.90;;;;;;4934736;29;20389;-61
2023/06/30 06:17:24;;;;;;;16.60;12.23;;;17.50;99.90;;;;;;4934846;29;20178;-66
2023/06/30 06:19:51;;;;;;;16.48;11.30;;;17.50;99.90;;;;;;4931706;29;20439;-62
2023/06/30 06:22:17;;;;;;;15.50;10.73;;;17.40;99.90;;;;;;4933625;29;20465;-63
2023/06/30 06:24:43;;;;;;;17.83;11.43;;;17.40;99.90;;;;;;4935026;29;20078;-62
2023/06/30 06:27:08;;;;;;;20.10;12.00;;;17.40;99.90;;;;;;4935278;29;20035;-62
2023/06/30 06:29:34;;;;;;;19.42;12.32;;;17.40;99.90;;;;;;4934512;29;20019;-62
2023/06/30 06:31:59;;;;;;;18.52;12.73;;;17.40;99.90;;;;;;4932304;29;20043;-62
2023/06/30 06:34:25;;;;;;;15.07;11.98;;;17.40;99.90;;;;;;4933984;29;20040;-62
2023/06/30 06:36:50;;;;;;;17.85;12.00;;;17.50;99.90;;;;;;4935288;29;20508;-62
2023/06/30 06:39:18;;;;;;;18.80;12.10;;;17.60;99.90;;;;;;4934554;29;20545;-65
2023/06/30 06:41:44;;;;;;;19.52;12.88;;;17.60;99.90;;;;;;4930688;29;20063;-65
2023/06/30 06:44:10;;;;;;;17.15;11.77;;;17.60;99.90;;;;;;4920655;29;20048;-65
2023/06/30 06:46:36;;;;;;;24.63;13.43;;;17.70;99.90;;;;;;4933663;29;20027;-64
2023/06/30 06:49:01;;;;;;;17.73;12.98;;;17.70;99.90;;;;;;4934652;29;20027;-63
2023/06/30 06:51:27;;;;;;;17.48;13.27;;;17.70;99.90;;;;;;4934222;29;20082;-63
2023/06/30 06:53:56;;;;;;;16.35;13.20;;;17.80;99.90;;;;;;4933475;29;20055;-63
2023/06/30 06:56:22;;;;;;;19.02;13.35;;;17.80;99.90;;;;;;4932877;29;20028;-64
2023/06/30 06:58:47;;;;;;;18.75;14.15;;;17.90;99.90;;;;;;4916688;29;20038;-63
2023/06/30 07:01:13;;;;;;;18.90;14.65;;;18.00;99.90;;;;;;4934846;29;20023;-63
2023/06/30 07:03:39;;;;;;;14.13;12.27;;;18.20;99.90;;;;;;4930198;29;20039;-63
2023/06/30 07:06:07;;;;;;;18.23;11.85;;;18.30;99.90;;;;;;4932716;29;20469;-63
2023/06/30 07:08:36;;;;;;;12.00;10.57;;;18.20;99.90;;;;;;4934393;29;20031;-64
2023/06/30 07:11:03;;;;;;;14.20;10.65;;;18.20;99.90;;;;;;4933547;29;20023;-64
2023/06/30 07:13:28;;;;;;;14.93;11.00;;;18.30;99.90;;;;;;4933460;29;20035;-64
2023/06/30 07:15:54;;;;;;;13.45;10.57;;;18.30;99.90;;;;;;4933402;29;20043;-64
2023/06/30 07:18:20;;;;;;;14.63;9.75;;;18.40;99.90;;;;;;4933651;29;20087;-64
2023/06/30 07:20:50;;;;;;;13.90;9.95;;;18.50;99.90;;;;;;4934480;29;20039;-64
2023/06/30 07:23:17;;;;;;;11.73;9.52;;;18.70;99.90;;;;;;4934752;29;20036;-64
2023/06/30 07:25:43;;;;;;;16.55;10.45;;;18.70;99.90;;;;;;4934258;29;20036;-64
2023/06/30 07:28:09;;;;;;;14.60;10.60;;;18.80;99.90;;;;;;4917833;29;20376;-63
2023/06/30 07:30:36;;;;;;;17.15;11.02;;;18.90;99.90;;;;;;4933772;29;20103;-63
2023/06/30 07:33:02;;;;;;;12.15;9.90;;;18.90;99.90;;;;;;4935542;29;20043;-63
2023/06/30 07:35:27;;;;;;;12.50;9.10;;;18.90;99.90;;;;;;4937180;29;20388;-62
2023/06/30 07:37:53;;;;;;;12.18;10.65;;;18.90;99.90;;;;;;4938805;29;20036;-63
2023/06/30 07:40:19;;;;;;;14.38;9.75;;;19.00;99.90;;;;;;4931095;29;20027;-63
2023/06/30 07:42:45;;;;;;;18.13;12.82;;;18.90;99.90;;;;;;4927623;29;20048;-63
2023/06/30 07:45:15;;;;;;;17.75;11.73;;;19.00;99.90;;;;;;4931398;29;20425;-63
2023/06/30 07:47:42;;;;;;;17.15;12.45;;;19.00;99.90;;;;;;4933522;29;20039;-63
2023/06/30 07:50:12;;;;;;;20.20;11.93;;;19.00;99.90;;;;;;4933481;29;20032;-62
2023/06/30 07:52:44;;;;;;;19.38;12.10;;;18.90;99.90;;;;;;4932790;29;20772;-63
2023/06/30 07:55:12;;;;;;;22.17;13.40;;;18.90;99.90;;;;;;4916380;29;20040;-64
2023/06/30 07:57:38;;;;;;;19.33;12.75;;;18.90;99.90;;;;;;4930452;29;20075;-65
2023/06/30 08:00:05;;;;;;;22.08;13.20;;;18.90;99.90;;;;;;4924687;29;20032;-64
2023/06/30 08:02:30;;;;;;;20.48;12.60;;;18.90;99.90;;;;;;4933369;29;20051;-65
2023/06/30 08:04:56;;;;;;;23.50;14.30;;;18.90;99.90;;;;;;4932281;29;20036;-64
2023/06/30 08:07:22;;;;;;;22.40;13.50;;;18.80;99.90;;;;;;4936930;29;20433;-65
2023/06/30 08:09:47;;;;;;;23.50;13.90;;;18.80;99.90;;;;;;4930935;29;20079;-64
2023/06/30 08:12:13;;;;;;;28.42;15.48;;;18.80;99.90;;;;;;4937010;29;20039;-64
2023/06/30 08:14:38;;;;;;;22.67;14.38;;;18.70;99.90;;;;;;4936647;29;20039;-64
2023/06/30 08:17:04;;;;;;;20.48;14.70;;;18.70;99.90;;;;;;4937829;29;20034;-64
2023/06/30 08:19:29;;;;;;;23.42;15.60;;;18.80;99.90;;;;;;4935974;29;20401;-65
2023/06/30 08:21:55;;;;;;;23.60;15.45;;;18.70;99.90;;;;;;4937681;29;20039;-65
2023/06/30 08:24:21;;;;;;;23.80;15.13;;;18.70;99.90;;;;;;4935963;29;20091;-65
2023/06/30 08:26:46;;;;;;;22.85;15.00;;;18.80;99.90;;;;;;4935677;29;20071;-65
2023/06/30 08:29:13;;;;;;;23.25;16.02;;;18.70;99.90;;;;;;4936111;29;20469;-65
2023/06/30 08:31:39;;;;;;;21.40;15.65;;;18.70;99.90;;;;;;4936208;29;20023;-65
2023/06/30 08:34:05;;;;;;;26.13;16.73;;;18.80;99.90;;;;;;4937285;29;20422;-65
2023/06/30 08:36:31;;;;;;;31.00;17.48;;;18.80;99.90;;;;;;4935667;29;20059;-66
2023/06/30 08:38:57;;;;;;;25.70;17.63;;;18.80;99.90;;;;;;4937373;29;20027;-63
2023/06/30 08:41:24;;;;;;;27.00;17.17;;;18.70;99.90;;;;;;4935187;29;20059;-64
2023/06/30 08:43:51;;;;;;;28.10;18.50;;;18.60;99.90;;;;;;4936787;29;20043;-68
2023/06/30 08:46:20;;;;;;;22.20;16.95;;;18.70;99.90;;;;;;4936014;29;20024;-64
2023/06/30 08:48:46;;;;;;;27.25;18.42;;;18.70;99.90;;;;;;4937124;29;20039;-64
2023/06/30 08:51:12;;;;;;;26.40;18.15;;;18.60;99.90;;;;;;4936641;29;20059;-64
2023/06/30 08:53:38;;;;;;;25.35;17.60;;;18.60;99.90;;;;;;4935516;29;20416;-64
2023/06/30 08:56:05;;;;;;;26.45;17.83;;;18.60;99.90;;;;;;4936035;29;20486;-64
2023/06/30 08:58:30;;;;;;;28.17;18.25;;;18.40;99.90;;;;;;4936060;29;20163;-64
2023/06/30 09:00:56;;;;;;;24.33;18.25;;;18.30;99.90;;;;;;4935257;29;20114;-65
2023/06/30 09:03:22;;;;;;;26.45;18.45;;;18.10;99.90;;;;;;4934197;29;20024;-64
2023/06/30 09:05:52;;;;;;;28.13;19.10;;;18.00;99.90;;;;;;4919401;29;20028;-64
2023/06/30 09:08:21;;;;;;;31.65;19.35;;;17.80;99.90;;;;;;4935993;29;20032;-64
2023/06/30 09:10:48;;;;;;;31.38;20.52;;;17.80;99.90;;;;;;4936142;29;20433;-65
2023/06/30 09:13:16;;;;;;;27.75;20.38;;;17.70;99.90;;;;;;4936658;29;20100;-66
2023/06/30 09:15:44;;;;;;;32.42;20.67;;;17.60;99.90;;;;;;4935440;29;20469;-65
2023/06/30 09:18:10;;;;;;;29.90;20.08;;;17.60;99.90;;;;;;4936562;29;20378;-64
2023/06/30 09:20:37;;;;;;;30.63;19.98;;;17.60;99.90;;;;;;4934886;29;20031;-64
2023/06/30 09:23:04;;;;;;;29.55;20.48;;;17.60;99.90;;;;;;4936780;29;20031;-64
2023/06/30 09:25:32;;;;;;;28.83;19.60;;;17.60;99.90;;;;;;4934654;29;20068;-64
2023/06/30 09:27:58;;;;;;;29.35;20.30;;;17.60;99.90;;;;;;4936463;29;20035;-65
2023/06/30 09:30:46;;;;;;;28.25;20.25;;;17.70;99.90;;;;;;4934904;29;20434;-64
2023/06/30 09:33:18;;;;;;;26.02;19.58;;;17.70;99.90;;;;;;4936334;29;20064;-65
2023/06/30 09:35:47;;;;;;;26.55;19.00;;;17.70;99.90;;;;;;4935698;29;20027;-64
2023/06/30 09:38:17;;;;;;;28.60;18.80;;;17.80;99.90;;;;;;4936072;29;20039;-64
2023/06/30 09:40:49;;;;;;;;;;;17.80;99.90;;;;;;4936034;29;20040;-64
2023/06/30 09:43:26;;;;;;;21.50;16.35;;;17.90;99.90;;;;;;4918221;29;19931;-65
2023/06/30 09:45:56;;;;;;;21.98;16.08;;;17.80;99.90;;;;;;4935677;29;20060;-64
2023/06/30 09:48:27;;;;;;;;;;;17.80;99.90;;;;;;4935515;29;20036;-64
2023/06/30 09:50:53;;;;;;;23.17;17.75;;;17.90;99.90;;;;;;4935511;29;19962;-65
2023/06/30 09:53:19;;;;;;;23.08;16.80;;;18.00;99.90;;;;;;4935352;29;20044;-64
2023/06/30 09:55:49;;;;;;;24.30;17.15;;;18.00;99.90;;;;;;4932578;29;20091;-64
2023/06/30 09:58:20;;;;;;;26.13;17.13;;;18.00;99.90;;;;;;4935455;29;20030;-66
2023/06/30 10:00:46;;;;;;;24.63;18.67;;;18.10;99.90;;;;;;4935217;29;20102;-65
2023/06/30 10:03:16;;;;;;;22.90;18.02;;;18.10;99.90;;;;;;4934938;29;20023;-64
2023/06/30 10:05:42;;;;;;;;;;;18.10;99.90;;;;;;4935531;29;20035;-64
2023/06/30 10:08:08;;;;;;;25.13;17.48;;;18.10;99.90;;;;;;4934738;29;20345;-64
2023/06/30 10:10:33;;;;;;;28.00;18.42;;;18.20;99.90;;;;;;4934234;29;20028;-64
2023/06/30 10:13:01;;;;;;;24.77;18.25;;;18.30;99.90;;;;;;4935497;29;20023;-64
2023/06/30 10:15:26;;;;;;;22.02;15.88;;;18.30;99.90;;;;;;4932286;29;20066;-64
2023/06/30 10:17:55;;;;;;;23.60;16.13;;;18.30;99.90;;;;;;4935266;29;20122;-64
2023/06/30 10:20:20;;;;;;;26.85;16.20;;;18.30;99.90;;;;;;4928910;29;20470;-65
2023/06/30 10:22:47;;;;;;;19.52;15.73;;;18.30;99.90;;;;;;4935618;29;20036;-64
2023/06/30 10:25:16;;;;;;;21.10;14.90;;;18.30;99.90;;;;;;4934650;29;20035;-64
2023/06/30 10:27:44;;;;;;;22.98;16.98;;;18.30;99.90;;;;;;4923783;29;20517;-65
2023/06/30 10:30:12;;;;;;;23.35;16.00;;;18.40;99.90;;;;;;4934463;29;20043;-65
2023/06/30 10:32:38;;;;;;;26.30;17.60;;;18.30;99.90;;;;;;4934467;29;20024;-65
2023/06/30 10:35:05;;;;;;;24.38;18.23;;;18.40;99.90;;;;;;4934145;29;20054;-65
2023/06/30 10:37:31;;;;;;;24.05;17.50;;;18.50;99.90;;;;;;4934453;29;20083;-65
2023/06/30 10:39:57;;;;;;;22.80;17.05;;;18.60;99.90;;;;;;4934500;29;20063;-65
2023/06/30 10:42:26;;;;;;;23.88;17.10;;;18.70;99.90;;;;;;4933957;29;20059;-65
2023/06/30 10:44:58;;;;;;;26.33;18.30;;;18.70;99.90;;;;;;4934735;29;20032;-65
2023/06/30 10:47:27;;;;;;;26.85;18.10;;;18.70;99.90;;;;;;4933983;29;20046;-65
2023/06/30 10:49:53;;;;;;;22.73;17.95;;;18.70;99.90;;;;;;4934684;29;20111;-64
2023/06/30 10:52:27;;;;;;;23.20;17.02;;;18.70;99.90;;;;;;4933998;29;20031;-65
2023/06/30 10:54:53;;;;;;;26.35;19.30;;;18.80;99.90;;;;;;4934229;29;20036;-65
2023/06/30 10:57:21;;;;;;;24.42;18.30;;;18.80;99.90;;;;;;4933681;29;20031;-65
2023/06/30 10:59:48;;;;;;;30.00;19.65;;;18.80;99.90;;;;;;4934429;29;20035;-65
2023/06/30 11:02:21;;;;;;;26.17;19.83;;;18.90;99.90;;;;;;4934608;29;20036;-65
2023/06/30 11:04:49;;;;;;;30.45;20.70;;;18.90;99.90;;;;;;4934013;29;20039;-65
2023/06/30 11:07:23;;;;;;;27.33;20.60;;;19.00;99.90;;;;;;4934214;29;20039;-65
2023/06/30 11:09:49;;;;;;;30.33;21.27;;;19.00;99.90;;;;;;4927389;29;20024;-65
2023/06/30 11:12:19;;;;;;;31.33;22.17;;;19.00;99.90;;;;;;4934423;29;20036;-64
2023/06/30 11:14:58;;;;;;;27.63;20.75;;;19.00;99.90;;;;;;4933914;29;20042;-64
2023/06/30 11:17:26;;;;;;;31.10;22.38;;;19.10;99.90;;;;;;4932630;29;20023;-64
2023/06/30 11:20:11;;;;;;;31.75;22.33;;;19.20;99.90;;;;;;4933319;29;20023;-64
2023/06/30 11:22:38;;;;;;;30.58;22.77;;;19.30;99.90;;;;;;4933664;29;20028;-64
2023/06/30 11:25:10;;;;;;;29.92;22.85;;;19.40;99.90;;;;;;4933738;29;20489;-64
2023/06/30 11:27:39;;;;;;;30.90;24.08;;;19.50;99.90;;;;;;4928561;29;20499;-64
2023/06/30 11:30:06;;;;;;;28.88;22.58;;;19.60;99.90;;;;;;4933709;29;20036;-64
2023/06/30 11:32:35;;;;;;;30.65;23.15;;;19.60;99.90;;;;;;4933627;29;20058;-64
2023/06/30 11:35:05;;;;;;;30.90;23.15;;;19.60;99.90;;;;;;4932767;29;20035;-65
2023/06/30 11:37:35;;;;;;;33.70;24.20;;;19.60;99.90;;;;;;4933501;29;20221;-63
2023/06/30 11:40:00;;;;;;;33.08;24.80;;;19.60;99.90;;;;;;4933036;29;20042;-64
2023/06/30 11:42:26;;;;;;;34.67;24.90;;;19.60;99.90;;;;;;4932981;29;20103;-63
2023/06/30 11:44:52;;;;;;;33.63;25.17;;;19.70;99.90;;;;;;4933078;29;20032;-65
2023/06/30 11:47:18;;;;;;;32.92;26.42;;;19.70;99.90;;;;;;4933488;29;20088;-64
2023/06/30 11:49:48;;;;;;;34.42;24.17;;;19.80;99.90;;;;;;4927688;29;20031;-64
2023/06/30 11:52:14;;;;;;;31.35;24.85;;;19.80;99.90;;;;;;4925678;29;20110;-64
2023/06/30 11:54:40;;;;;;;33.85;25.67;;;19.90;99.90;;;;;;4932789;29;20043;-64
2023/06/30 11:57:07;;;;;;;31.83;25.38;;;20.10;99.90;;;;;;4933925;29;20028;-64
2023/06/30 11:59:33;;;;;;;34.42;25.23;;;20.30;99.90;;;;;;4930153;29;20102;-64
2023/06/30 12:02:02;;;;;;;34.65;24.95;;;20.40;99.90;;;;;;4922008;29;20111;-64
2023/06/30 12:04:33;;;;;;;35.60;25.60;;;20.60;99.90;;;;;;4931234;29;20036;-64
2023/06/30 12:07:04;;;;;;;37.25;25.95;;;20.70;99.90;;;;;;4933844;29;20491;-64
2023/06/30 12:09:30;;;;;;;32.70;25.55;;;20.80;99.90;;;;;;4932083;29;20031;-64
2023/06/30 12:11:56;;;;;;;38.17;26.17;;;20.90;99.90;;;;;;4928538;29;20500;-64
2023/06/30 12:14:25;;;;;;;35.75;24.95;;;21.00;99.90;;;;;;4926957;29;20118;-64
2023/06/30 12:16:53;;;;;;;34.22;24.75;;;21.10;99.90;;;;;;4928047;29;20036;-64
2023/06/30 12:19:28;;;;;;;37.00;24.25;;;21.10;99.90;;;;;;4925544;29;20046;-65
2023/06/30 12:22:07;;;;;;;33.30;23.38;;;21.00;99.90;;;;;;4927573;29;20032;-67
2023/06/30 12:24:34;;;;;;;36.17;25.58;;;21.00;99.90;;;;;;4931129;29;20087;-64
2023/06/30 12:27:04;;;;;;;31.52;24.33;;;20.90;99.90;;;;;;4927852;29;20027;-63
2023/06/30 12:29:32;;;;;;;32.80;24.40;;;20.80;99.90;;;;;;4924844;29;20029;-63
2023/06/30 12:31:58;;;;;;;29.42;23.88;;;20.80;99.90;;;;;;4928850;29;20027;-64
2023/06/30 12:34:34;;;;;;;33.30;24.38;;;20.70;99.90;;;;;;4926616;29;20404;-65
2023/06/30 12:37:00;;;;;;;32.95;23.95;;;20.70;99.90;;;;;;4924665;29;20042;-67